Time;durP1;ratioP1;P1;durP2;ratioP2;P2;SDS_P1;SDS_P2;PMS_P1;PMS_P2;Temp;Humidity;BMP_temperature;BMP_pressure;BME280_temperature;BME280_humidity;BME280_pressure;Samples;Min_cycle;Max_cycle;Signal;HPM_P1;HPM_P2
2023/09/09 00:04:47;;;;;;;12.90;11.60;;;25.40;91.10;;;;;;10498084;28;21223;-67
2023/09/09 00:09:48;;;;;;;13.27;11.40;;;25.40;91.10;;;;;;10503704;28;20456;-68
2023/09/09 00:14:49;;;;;;;13.32;11.30;;;25.30;91.10;;;;;;10498192;28;20395;-67
2023/09/09 00:19:51;;;;;;;12.65;11.05;;;25.30;91.10;;;;;;10498281;28;20908;-68
2023/09/09 00:24:52;;;;;;;13.98;11.65;;;25.30;91.10;;;;;;10498588;28;20612;-67
2023/09/09 00:29:52;;;;;;;12.40;11.10;;;25.30;91.10;;;;;;10496162;28;20400;-67
2023/09/09 00:34:54;;;;;;;12.05;10.80;;;25.20;91.10;;;;;;10496284;28;20423;-68
2023/09/09 00:39:54;;;;;;;12.13;10.83;;;25.20;91.10;;;;;;10493534;28;20931;-67
2023/09/09 00:44:55;;;;;;;11.70;10.50;;;25.20;91.10;;;;;;10496195;28;20414;-67
2023/09/09 00:49:56;;;;;;;11.80;10.53;;;25.10;91.00;;;;;;10499299;28;20412;-68
2023/09/09 00:54:58;;;;;;;12.97;11.57;;;25.10;91.00;;;;;;10493622;28;20474;-68
2023/09/09 01:00:01;;;;;;;12.87;11.27;;;25.10;91.00;;;;;;10501824;28;20407;-68
2023/09/09 01:05:03;;;;;;;12.73;11.40;;;25.00;91.00;;;;;;10493671;28;20410;-68
2023/09/09 01:10:04;;;;;;;13.77;12.07;;;25.00;91.10;;;;;;10493508;28;20469;-67
2023/09/09 01:15:12;;;;;;;14.48;12.85;;;25.00;91.10;;;;;;10491512;28;20899;-68
2023/09/09 01:20:14;;;;;;;15.30;12.43;;;24.90;91.10;;;;;;10498158;28;20914;-66
2023/09/09 01:25:16;;;;;;;14.50;12.10;;;24.90;91.10;;;;;;10501390;28;20642;-68
2023/09/09 01:30:17;;;;;;;13.63;12.15;;;24.90;91.10;;;;;;10487604;28;20812;-67
2023/09/09 01:35:18;;;;;;;14.13;12.60;;;24.90;91.10;;;;;;10498142;28;20405;-68
2023/09/09 01:40:18;;;;;;;14.98;12.85;;;24.80;91.10;;;;;;10499474;28;20616;-68
2023/09/09 01:45:19;;;;;;;13.70;12.25;;;24.80;91.10;;;;;;10492035;28;20823;-67
2023/09/09 01:50:20;;;;;;;13.73;12.13;;;24.80;91.10;;;;;;10506042;28;20444;-68
2023/09/09 01:55:20;;;;;;;13.40;11.97;;;24.80;91.10;;;;;;10498067;28;20978;-68
2023/09/09 02:00:21;;;;;;;14.90;12.13;;;24.70;91.10;;;;;;10490342;28;20527;-67
2023/09/09 02:05:22;;;;;;;13.63;12.10;;;24.70;91.10;;;;;;10481661;28;20411;-67
2023/09/09 02:10:22;;;;;;;13.40;11.77;;;24.70;91.10;;;;;;10504597;28;20401;-68
2023/09/09 02:15:23;;;;;;;12.77;11.20;;;24.70;91.10;;;;;;10488942;28;20425;-68
2023/09/09 02:20:24;;;;;;;13.47;11.90;;;24.60;91.10;;;;;;10488298;28;20866;-68
2023/09/09 02:25:25;;;;;;;13.30;11.90;;;24.60;91.10;;;;;;10490826;28;20400;-68
2023/09/09 02:30:25;;;;;;;13.85;12.20;;;24.60;91.10;;;;;;10499606;28;20407;-67
2023/09/09 02:35:31;;;;;;;13.70;12.07;;;24.50;91.10;;;;;;10485879;28;20430;-68
2023/09/09 02:40:31;;;;;;;14.47;11.60;;;24.50;91.20;;;;;;10483545;28;20886;-67
2023/09/09 02:45:32;;;;;;;13.27;11.73;;;24.50;91.20;;;;;;10483261;28;20459;-68
2023/09/09 02:50:33;;;;;;;13.35;11.95;;;24.40;91.10;;;;;;10480904;28;20465;-68
2023/09/09 02:55:34;;;;;;;12.70;11.30;;;24.40;91.20;;;;;;10480876;28;20400;-67
2023/09/09 03:00:35;;;;;;;12.10;10.90;;;24.40;91.20;;;;;;10485439;28;20395;-67
2023/09/09 03:05:36;;;;;;;12.07;10.77;;;24.30;91.10;;;;;;10482434;28;20941;-68
2023/09/09 03:10:37;;;;;;;12.80;10.50;;;24.30;91.10;;;;;;10487148;28;20414;-68
2023/09/09 03:15:37;;;;;;;11.40;10.20;;;24.30;91.10;;;;;;10494766;28;20525;-68
2023/09/09 03:20:38;;;;;;;10.82;9.68;;;24.20;91.10;;;;;;10486496;28;20467;-68
2023/09/09 03:25:39;;;;;;;10.55;9.45;;;24.20;91.10;;;;;;10484640;28;20487;-68
2023/09/09 03:31:00;;;;;;;11.33;9.33;;;24.20;91.10;;;;;;10485041;28;20391;-67
2023/09/09 03:36:00;;;;;;;10.48;9.18;;;24.20;91.10;;;;;;10490220;28;20411;-68
2023/09/09 03:41:05;;;;;;;11.47;10.07;;;24.10;91.10;;;;;;10489897;28;20423;-68
2023/09/09 03:46:05;;;;;;;10.85;9.57;;;24.10;91.10;;;;;;10490144;28;20403;-68
2023/09/09 03:51:06;;;;;;;11.17;9.60;;;24.10;91.10;;;;;;10492286;28;20409;-68
2023/09/09 03:56:07;;;;;;;10.68;9.55;;;24.10;91.10;;;;;;10497277;28;20409;-68
2023/09/09 04:01:10;;;;;;;11.60;10.13;;;24.00;91.10;;;;;;10493070;28;20466;-68
2023/09/09 04:06:12;;;;;;;11.48;10.27;;;24.00;91.10;;;;;;10494027;28;20439;-67
2023/09/09 04:11:12;;;;;;;12.02;10.63;;;24.00;91.10;;;;;;10489145;28;20825;-68
2023/09/09 04:16:13;;;;;;;11.45;10.13;;;24.00;91.10;;;;;;10489714;28;20411;-67
2023/09/09 04:21:14;;;;;;;12.45;10.55;;;23.90;91.00;;;;;;10488203;28;20448;-68
2023/09/09 04:26:14;;;;;;;12.67;10.90;;;23.90;91.00;;;;;;10492509;28;20488;-68
2023/09/09 04:31:15;;;;;;;11.87;10.67;;;23.90;91.00;;;;;;10489104;28;20744;-67
2023/09/09 04:36:15;;;;;;;12.03;10.83;;;23.80;91.00;;;;;;10489724;28;21008;-68
2023/09/09 04:41:16;;;;;;;11.50;10.30;;;23.80;91.00;;;;;;10489025;28;20407;-68
2023/09/09 04:46:17;;;;;;;11.48;10.27;;;23.80;91.00;;;;;;10484773;28;20397;-67
2023/09/09 04:51:18;;;;;;;10.98;9.88;;;23.80;91.00;;;;;;10497619;28;20399;-67
2023/09/09 04:56:18;;;;;;;11.50;10.30;;;23.70;90.90;;;;;;10495657;28;20885;-67
2023/09/09 05:01:19;;;;;;;10.60;9.40;;;23.70;90.90;;;;;;10492474;28;20718;-68
2023/09/09 05:06:19;;;;;;;10.90;9.80;;;23.70;90.90;;;;;;10497099;28;20394;-67
2023/09/09 05:11:20;;;;;;;10.93;9.82;;;23.70;90.90;;;;;;10493788;28;20931;-66
2023/09/09 05:16:21;;;;;;;11.18;9.80;;;23.70;90.90;;;;;;10489730;28;20396;-67
2023/09/09 05:21:21;;;;;;;11.00;9.90;;;23.60;90.90;;;;;;10490661;28;20519;-68
2023/09/09 05:26:22;;;;;;;11.33;10.17;;;23.60;90.90;;;;;;10501051;28;20437;-68
2023/09/09 05:31:23;;;;;;;11.57;10.37;;;23.60;90.90;;;;;;10490963;28;20496;-67
2023/09/09 05:36:24;;;;;;;11.45;10.25;;;23.60;90.90;;;;;;10494266;28;20954;-68
2023/09/09 05:41:31;;;;;;;11.10;9.90;;;23.50;90.80;;;;;;10495920;28;20417;-67
2023/09/09 05:46:32;;;;;;;11.00;9.80;;;23.50;90.80;;;;;;10487489;28;20401;-67
2023/09/09 05:51:33;;;;;;;11.07;9.95;;;23.50;90.90;;;;;;10490257;28;20415;-68
2023/09/09 05:56:33;;;;;;;10.35;9.25;;;23.50;90.90;;;;;;10492962;28;20813;-68
2023/09/09 06:01:34;;;;;;;9.80;8.80;;;23.40;90.80;;;;;;10488705;28;20400;-66
2023/09/09 06:06:35;;;;;;;10.38;9.30;;;23.40;90.80;;;;;;10503470;28;20842;-68
2023/09/09 06:11:36;;;;;;;10.47;9.40;;;23.40;90.90;;;;;;10483327;28;20412;-67
2023/09/09 06:16:36;;;;;;;10.63;9.53;;;23.40;90.90;;;;;;10491046;28;20403;-68
2023/09/09 06:21:37;;;;;;;10.37;9.33;;;23.40;91.00;;;;;;10490426;28;20455;-67
2023/09/09 06:26:38;;;;;;;10.40;9.40;;;23.40;91.00;;;;;;10490329;28;20390;-67
2023/09/09 06:31:39;;;;;;;12.63;10.48;;;23.40;91.00;;;;;;10493728;28;20519;-68
2023/09/09 06:36:39;;;;;;;11.05;9.90;;;23.40;91.10;;;;;;10495059;28;20953;-68
2023/09/09 06:41:40;;;;;;;10.50;9.43;;;23.30;91.10;;;;;;10493583;28;20430;-69
2023/09/09 06:46:40;;;;;;;11.60;10.23;;;23.30;91.00;;;;;;10493989;28;20454;-68
2023/09/09 06:51:41;;;;;;;11.75;10.55;;;23.40;91.00;;;;;;10493571;28;20406;-71
2023/09/09 06:56:42;;;;;;;12.57;11.00;;;23.40;91.00;;;;;;10492830;28;20409;-72
2023/09/09 07:01:43;;;;;;;13.03;11.53;;;23.40;91.10;;;;;;10491187;28;20405;-70
2023/09/09 07:06:43;;;;;;;12.63;11.03;;;23.40;91.10;;;;;;10490140;28;20402;-70
2023/09/09 07:11:44;;;;;;;12.57;11.27;;;23.40;91.20;;;;;;10490956;28;20411;-72
2023/09/09 07:16:44;;;;;;;12.83;11.50;;;23.50;91.20;;;;;;10489235;28;20625;-69
2023/09/09 07:21:45;;;;;;;13.87;11.77;;;23.50;91.20;;;;;;10484540;28;20423;-69
2023/09/09 07:26:46;;;;;;;13.55;12.15;;;23.50;91.20;;;;;;10489263;28;20398;-69
2023/09/09 07:31:46;;;;;;;15.50;13.20;;;23.50;91.30;;;;;;10488695;28;20919;-69
2023/09/09 07:36:47;;;;;;;14.83;13.33;;;23.20;91.40;;;;;;10495452;28;20415;-69
2023/09/09 07:41:48;;;;;;;16.13;14.03;;;23.50;91.50;;;;;;10496027;28;20443;-68
2023/09/09 07:46:49;;;;;;;16.67;13.47;;;23.50;91.60;;;;;;10485410;28;20885;-68
2023/09/09 07:51:50;;;;;;;17.07;14.67;;;23.60;91.70;;;;;;10488196;28;20490;-69
2023/09/09 07:56:50;;;;;;;15.82;13.93;;;23.60;91.70;;;;;;10491901;28;20394;-70
2023/09/09 08:01:51;;;;;;;16.07;13.93;;;23.60;91.80;;;;;;10492172;28;20415;-69
2023/09/09 08:06:53;;;;;;;16.65;14.23;;;23.70;91.80;;;;;;10491180;28;20416;-70
2023/09/09 08:11:53;;;;;;;17.75;14.32;;;23.70;91.90;;;;;;10490466;28;20895;-70
2023/09/09 08:16:55;;;;;;;16.60;14.17;;;23.70;91.90;;;;;;10499286;28;20478;-70
2023/09/09 08:21:55;;;;;;;16.67;14.23;;;23.70;91.90;;;;;;10508227;28;20406;-70
2023/09/09 08:26:56;;;;;;;16.13;14.43;;;23.70;91.90;;;;;;10495335;28;20418;-71
2023/09/09 08:31:58;;;;;;;18.33;15.13;;;23.70;91.80;;;;;;10491899;28;20396;-70
2023/09/09 08:36:58;;;;;;;18.83;15.52;;;23.80;92.10;;;;;;10494723;28;20401;-70
2023/09/09 08:42:15;;;;;;;16.88;15.07;;;23.80;91.90;;;;;;10502183;28;20429;-70
2023/09/09 08:47:18;;;;;;;17.97;15.77;;;23.80;91.90;;;;;;10494838;28;20388;-69
2023/09/09 08:52:24;;;;;;;18.23;15.68;;;23.80;92.00;;;;;;10498963;28;20400;-68
2023/09/09 08:57:28;;;;;;;19.10;15.52;;;23.80;92.00;;;;;;10497077;28;20396;-70
2023/09/09 09:02:29;;;;;;;18.52;16.52;;;23.80;92.10;;;;;;10499772;28;20408;-69
2023/09/09 09:07:32;;;;;;;19.45;16.55;;;23.90;92.20;;;;;;10489840;28;20408;-69
2023/09/09 09:12:36;;;;;;;21.08;17.38;;;23.90;92.30;;;;;;10494887;28;21172;-69
2023/09/09 09:17:40;;;;;;;18.92;16.63;;;23.90;92.70;;;;;;10493361;28;20956;-66
2023/09/09 09:22:41;;;;;;;22.67;17.90;;;23.90;92.70;;;;;;10500154;28;20418;-71
2023/09/09 09:27:42;;;;;;;21.63;17.35;;;24.00;93.00;;;;;;10495861;28;20716;-72
2023/09/09 09:32:43;;;;;;;19.87;17.60;;;24.00;93.00;;;;;;10503243;28;20409;-71
2023/09/09 09:37:43;;;;;;;21.00;18.13;;;24.10;93.00;;;;;;10492813;28;20934;-71
2023/09/09 09:42:44;;;;;;;22.38;17.52;;;24.10;93.10;;;;;;10498934;28;20411;-71
2023/09/09 09:47:50;;;;;;;19.67;17.33;;;24.10;93.10;;;;;;10493615;28;20402;-71
2023/09/09 09:53:05;;;;;;;22.67;18.53;;;24.20;93.10;;;;;;10492918;28;20811;-70
2023/09/09 09:58:07;;;;;;;22.10;19.03;;;24.20;93.10;;;;;;10490656;28;20425;-71
2023/09/09 10:03:09;;;;;;;21.57;18.77;;;24.20;93.10;;;;;;10494780;28;20753;-70
2023/09/09 10:08:29;;;;;;;23.85;19.05;;;24.30;93.10;;;;;;10488580;28;20502;-70
2023/09/09 10:13:36;;;;;;;25.03;21.07;;;24.40;93.00;;;;;;10492656;28;20412;-68
2023/09/09 10:18:37;;;;;;;24.97;19.57;;;24.40;93.30;;;;;;10491901;28;20908;-71
2023/09/09 10:23:40;;;;;;;25.55;20.30;;;24.40;93.10;;;;;;10502791;28;20487;-69
2023/09/09 10:28:41;;;;;;;24.48;19.98;;;24.50;93.10;;;;;;10492634;28;20419;-68
2023/09/09 10:33:42;;;;;;;27.00;20.55;;;24.60;93.00;;;;;;10493594;28;20410;-69
2023/09/09 10:38:43;;;;;;;25.87;21.10;;;24.60;93.00;;;;;;10489515;28;20751;-70
2023/09/09 10:43:44;;;;;;;29.60;22.57;;;24.70;93.00;;;;;;10487880;28;20454;-70
2023/09/09 10:48:45;;;;;;;25.27;20.47;;;24.70;93.10;;;;;;10490659;28;20536;-67
2023/09/09 10:53:46;;;;;;;27.83;21.17;;;24.80;93.30;;;;;;10500161;28;20405;-69
2023/09/09 10:58:49;;;;;;;26.07;19.97;;;24.90;93.20;;;;;;10501210;28;20401;-67
2023/09/09 11:03:51;;;;;;;24.20;19.23;;;24.90;93.10;;;;;;10478131;28;20403;-69
2023/09/09 11:08:58;;;;;;;23.67;18.70;;;25.00;93.00;;;;;;10496209;28;20407;-69
2023/09/09 11:14:04;;;;;;;22.30;17.87;;;25.10;92.90;;;;;;10491261;28;20407;-69
2023/09/09 11:19:05;;;;;;;21.02;17.27;;;25.10;92.70;;;;;;10498026;28;20397;-70
2023/09/09 11:24:07;;;;;;;21.98;16.95;;;25.20;92.70;;;;;;10493014;28;20408;-68
2023/09/09 11:29:08;;;;;;;21.23;16.40;;;25.20;92.50;;;;;;10495942;28;20434;-69
2023/09/09 11:34:09;;;;;;;18.83;16.00;;;25.30;92.40;;;;;;10486554;28;20432;-69
2023/09/09 11:39:11;;;;;;;17.47;14.43;;;25.30;92.30;;;;;;10481825;28;20408;-69
2023/09/09 11:44:11;;;;;;;16.83;13.90;;;25.30;91.80;;;;;;10488432;28;20852;-68
2023/09/09 11:49:13;;;;;;;16.43;13.50;;;25.40;92.00;;;;;;10497349;28;20396;-66
2023/09/09 11:54:20;;;;;;;14.57;12.83;;;25.40;91.80;;;;;;10498877;28;20427;-68
2023/09/09 11:59:21;;;;;;;15.93;12.70;;;25.40;91.70;;;;;;10483115;28;20395;-68
2023/09/09 12:04:22;;;;;;;15.00;12.50;;;25.50;91.80;;;;;;10493294;28;20407;-67
2023/09/09 12:09:22;;;;;;;14.57;13.00;;;25.60;91.80;;;;;;10493922;28;20442;-66
2023/09/09 12:14:23;;;;;;;14.63;12.70;;;25.60;91.90;;;;;;10501232;28;20455;-71
2023/09/09 12:19:24;;;;;;;14.17;12.37;;;25.60;91.90;;;;;;10502036;28;20828;-70
2023/09/09 12:24:24;;;;;;;14.30;12.33;;;25.70;91.90;;;;;;10498877;28;20446;-66
2023/09/09 12:29:27;;;;;;;12.90;11.50;;;25.70;92.00;;;;;;10501988;28;20522;-65
2023/09/09 12:34:28;;;;;;;13.77;11.50;;;25.80;91.90;;;;;;10502230;28;20739;-66
2023/09/09 12:39:30;;;;;;;13.83;11.40;;;25.90;91.80;;;;;;10496056;28;20763;-66
2023/09/09 12:44:32;;;;;;;13.48;11.60;;;25.90;91.40;;;;;;10487528;28;20807;-65
2023/09/09 12:49:33;;;;;;;12.30;11.00;;;26.00;91.70;;;;;;10495588;28;20398;-64
2023/09/09 12:54:34;;;;;;;13.10;11.17;;;26.10;91.90;;;;;;10488851;28;20545;-65
2023/09/09 12:59:38;;;;;;;11.80;10.50;;;26.10;92.00;;;;;;10490483;28;20450;-65
2023/09/09 13:04:39;;;;;;;12.50;10.77;;;26.20;92.10;;;;;;10492670;28;20486;-66
2023/09/09 13:09:39;;;;;;;12.10;10.80;;;26.20;92.30;;;;;;10495247;28;20495;-65
2023/09/09 13:14:40;;;;;;;12.18;10.95;;;26.20;92.20;;;;;;10489734;28;20411;-66
2023/09/09 13:19:40;;;;;;;11.67;10.50;;;26.20;92.20;;;;;;10497645;28;20530;-66
2023/09/09 13:24:41;;;;;;;11.77;10.53;;;26.30;92.30;;;;;;10493212;28;20407;-65
2023/09/09 13:29:42;;;;;;;11.93;10.43;;;26.40;92.30;;;;;;10489767;28;20814;-65
2023/09/09 13:34:42;;;;;;;11.30;10.10;;;26.50;92.30;;;;;;10490889;28;20412;-66
2023/09/09 13:39:43;;;;;;;11.27;10.10;;;26.50;92.30;;;;;;10492140;28;20425;-66
2023/09/09 13:44:43;;;;;;;11.40;10.30;;;26.60;92.30;;;;;;10489124;28;20419;-65
2023/09/09 13:49:44;;;;;;;11.13;9.93;;;26.60;92.30;;;;;;10488544;28;20396;-65
2023/09/09 13:54:46;;;;;;;11.38;10.27;;;26.70;92.20;;;;;;10488772;28;20404;-66
2023/09/09 13:59:47;;;;;;;10.98;9.88;;;26.80;92.10;;;;;;10491508;28;20399;-66
2023/09/09 14:04:47;;;;;;;10.55;9.55;;;26.90;92.10;;;;;;10485459;28;20416;-65
2023/09/09 14:09:48;;;;;;;11.43;10.20;;;27.00;92.00;;;;;;10492790;28;20825;-65
2023/09/09 14:14:49;;;;;;;10.97;9.90;;;27.00;91.80;;;;;;10494162;28;20391;-65
2023/09/09 14:19:50;;;;;;;11.35;9.73;;;27.10;91.70;;;;;;10494085;28;20403;-64
2023/09/09 14:24:51;;;;;;;10.35;9.27;;;27.20;91.80;;;;;;10497629;28;20407;-66
2023/09/09 14:29:51;;;;;;;11.10;10.00;;;27.30;91.70;;;;;;10490222;28;20472;-65
2023/09/09 14:34:52;;;;;;;10.60;9.57;;;27.40;91.60;;;;;;10491472;28;20410;-65
2023/09/09 14:39:53;;;;;;;11.20;10.03;;;27.50;91.50;;;;;;10486783;28;20456;-66
2023/09/09 14:44:53;;;;;;;10.63;9.55;;;27.60;91.30;;;;;;10487084;28;20889;-65
2023/09/09 14:49:54;;;;;;;10.40;9.40;;;27.70;91.30;;;;;;10487268;28;20449;-65
2023/09/09 14:54:55;;;;;;;10.70;9.60;;;27.80;91.20;;;;;;10491385;28;20895;-65
2023/09/09 14:59:55;;;;;;;9.80;8.80;;;27.90;91.10;;;;;;10486406;28;20403;-65
2023/09/09 15:04:56;;;;;;;10.30;8.80;;;27.90;90.70;;;;;;10481531;28;20411;-64
2023/09/09 15:09:57;;;;;;;10.37;9.33;;;28.00;90.50;;;;;;10491690;28;20396;-66
2023/09/09 15:14:57;;;;;;;10.23;9.18;;;28.10;90.70;;;;;;10493894;28;20408;-66
2023/09/09 15:19:58;;;;;;;10.40;9.40;;;28.00;90.60;;;;;;10490020;28;20423;-65
2023/09/09 15:24:58;;;;;;;10.48;9.48;;;28.00;90.80;;;;;;10491807;28;20400;-66
2023/09/09 15:29:59;;;;;;;10.13;9.13;;;28.00;90.60;;;;;;10494281;28;20408;-66
2023/09/09 15:35:00;;;;;;;10.45;9.35;;;28.00;90.90;;;;;;10498179;28;20487;-65
2023/09/09 15:40:00;;;;;;;10.50;9.40;;;28.00;90.80;;;;;;10498751;28;20419;-67
2023/09/09 15:45:01;;;;;;;10.37;9.37;;;28.10;90.80;;;;;;10499063;28;20752;-66
2023/09/09 15:50:02;;;;;;;10.38;9.38;;;28.00;91.00;;;;;;10496569;28;20445;-67
2023/09/09 15:55:03;;;;;;;10.38;9.40;;;28.00;91.10;;;;;;10499241;28;20395;-67
2023/09/09 16:00:05;;;;;;;10.20;9.20;;;27.90;91.20;;;;;;10489842;28;20395;-66
2023/09/09 16:05:05;;;;;;;10.68;9.52;;;27.90;91.30;;;;;;10498781;28;20452;-70
2023/09/09 16:10:07;;;;;;;9.93;8.93;;;27.80;91.40;;;;;;10498439;28;20970;-69
2023/09/09 16:15:08;;;;;;;9.90;8.63;;;27.80;91.40;;;;;;10499560;28;20887;-68
2023/09/09 16:20:10;;;;;;;10.68;9.38;;;27.60;87.50;;;;;;10493976;28;20405;-66
2023/09/09 16:25:11;;;;;;;10.20;9.20;;;27.50;90.50;;;;;;10495785;28;20467;-64
2023/09/09 16:30:12;;;;;;;10.30;9.10;;;27.50;90.70;;;;;;10490537;28;20491;-66
2023/09/09 16:35:15;;;;;;;11.10;9.40;;;27.50;90.80;;;;;;10497733;28;20541;-65
2023/09/09 16:40:16;;;;;;;11.77;9.33;;;27.50;90.80;;;;;;10495009;28;20891;-67
2023/09/09 16:45:16;;;;;;;10.67;9.57;;;27.50;90.90;;;;;;10497109;28;20391;-66
2023/09/09 16:50:17;;;;;;;11.07;9.55;;;27.50;91.00;;;;;;10497986;28;20391;-67
2023/09/09 16:55:18;;;;;;;10.27;9.13;;;27.40;91.10;;;;;;10500988;28;20410;-67
2023/09/09 17:00:18;;;;;;;9.90;8.90;;;27.40;91.30;;;;;;10496388;28;20403;-66
2023/09/09 17:05:21;;;;;;;10.67;9.27;;;27.40;91.20;;;;;;10497660;28;20991;-66
2023/09/09 17:10:21;;;;;;;12.80;9.80;;;27.40;91.40;;;;;;10488251;28;20410;-67
2023/09/09 17:15:22;;;;;;;10.83;9.73;;;27.30;91.50;;;;;;10491960;28;20483;-64
2023/09/09 17:20:23;;;;;;;10.77;9.67;;;27.20;91.40;;;;;;10491715;28;20387;-66
2023/09/09 17:25:23;;;;;;;11.33;10.13;;;27.30;91.50;;;;;;10499761;28;20407;-67
2023/09/09 17:30:25;;;;;;;10.50;9.50;;;27.20;91.50;;;;;;10502442;28;20438;-67
2023/09/09 17:35:27;;;;;;;11.27;10.02;;;27.20;91.50;;;;;;10495493;28;20826;-68
2023/09/09 17:40:28;;;;;;;11.43;10.23;;;27.10;91.50;;;;;;10492865;28;20492;-65
2023/09/09 17:45:28;;;;;;;11.30;10.20;;;27.20;91.60;;;;;;10486553;28;20787;-66
2023/09/09 17:50:29;;;;;;;11.60;10.07;;;27.10;91.60;;;;;;10505389;28;20469;-66
2023/09/09 17:55:30;;;;;;;11.43;10.33;;;27.10;91.60;;;;;;10503371;28;20411;-67
2023/09/09 18:00:30;;;;;;;10.93;9.82;;;27.10;91.60;;;;;;10500221;28;20883;-66
2023/09/09 18:05:35;;;;;;;11.73;10.55;;;27.10;91.70;;;;;;10498177;28;20471;-70
2023/09/09 18:10:36;;;;;;;12.02;10.50;;;27.00;91.70;;;;;;10495603;28;20919;-66
2023/09/09 18:15:37;;;;;;;12.37;10.50;;;27.00;91.70;;;;;;10487625;28;20489;-65
2023/09/09 18:20:37;;;;;;;12.47;11.17;;;27.00;91.70;;;;;;10491965;28;20417;-64
2023/09/09 18:25:38;;;;;;;12.63;11.33;;;26.90;91.70;;;;;;10497482;28;20726;-66
2023/09/09 18:30:42;;;;;;;13.20;11.90;;;26.90;91.70;;;;;;10488034;28;20891;-67
2023/09/09 18:35:44;;;;;;;15.10;13.57;;;26.80;91.70;;;;;;10499838;28;20939;-66
2023/09/09 18:40:45;;;;;;;14.30;12.77;;;26.80;91.90;;;;;;10493781;28;20915;-66
2023/09/09 18:45:46;;;;;;;15.35;13.75;;;26.70;92.00;;;;;;10492926;28;20414;-67
2023/09/09 18:50:47;;;;;;;16.67;14.13;;;26.60;91.90;;;;;;10492710;28;20398;-65
2023/09/09 18:55:47;;;;;;;14.73;13.23;;;26.60;91.90;;;;;;10495640;28;20723;-65
2023/09/09 19:00:52;;;;;;;15.70;14.00;;;26.50;92.00;;;;;;10496217;28;20407;-66
2023/09/09 19:05:54;;;;;;;16.58;13.75;;;26.50;91.90;;;;;;10488196;28;20485;-66
2023/09/09 19:10:55;;;;;;;15.55;13.95;;;26.50;92.00;;;;;;10487178;28;21107;-65
2023/09/09 19:15:56;;;;;;;15.30;13.70;;;26.50;92.00;;;;;;10483480;28;20411;-65
2023/09/09 19:20:56;;;;;;;16.47;14.67;;;26.40;92.00;;;;;;10488307;28;20398;-66
2023/09/09 19:25:57;;;;;;;16.20;14.52;;;26.40;92.00;;;;;;10474689;28;20468;-65
2023/09/09 19:30:57;;;;;;;17.03;14.90;;;26.40;92.00;;;;;;10479695;28;20437;-66
2023/09/09 19:35:58;;;;;;;16.00;14.40;;;26.40;92.00;;;;;;10484741;28;20632;-65
2023/09/09 19:40:59;;;;;;;16.00;14.40;;;26.30;92.00;;;;;;10490070;28;20968;-65
2023/09/09 19:45:59;;;;;;;16.00;14.30;;;26.30;92.00;;;;;;10487440;28;20410;-65
2023/09/09 19:51:00;;;;;;;16.48;14.68;;;26.20;92.00;;;;;;10483120;28;20825;-65
2023/09/09 19:56:01;;;;;;;16.77;14.63;;;26.20;92.00;;;;;;10483089;28;20411;-65
2023/09/09 20:01:03;;;;;;;16.00;14.40;;;26.10;92.10;;;;;;10493213;28;20471;-65
2023/09/09 20:06:05;;;;;;;17.10;15.10;;;26.10;92.10;;;;;;10480995;28;20457;-66
2023/09/09 20:11:06;;;;;;;17.65;15.82;;;26.10;92.10;;;;;;10481541;28;20400;-66
2023/09/09 20:16:07;;;;;;;16.60;14.90;;;26.00;92.10;;;;;;10485342;28;20793;-64
2023/09/09 20:21:07;;;;;;;17.90;15.33;;;26.00;92.10;;;;;;10491702;28;20409;-65
2023/09/09 20:26:08;;;;;;;17.00;15.30;;;26.00;92.10;;;;;;10486692;28;20869;-65
2023/09/09 20:31:09;;;;;;;16.67;14.98;;;26.00;92.10;;;;;;10486043;28;20450;-65
2023/09/09 20:36:10;;;;;;;17.50;15.60;;;25.90;92.10;;;;;;10487671;28;20409;-66
2023/09/09 20:41:10;;;;;;;16.83;15.13;;;25.80;92.10;;;;;;10490292;28;20814;-65
2023/09/09 20:46:12;;;;;;;17.20;15.40;;;25.90;92.10;;;;;;10495598;28;20532;-66
2023/09/09 20:51:12;;;;;;;16.80;15.10;;;25.80;92.10;;;;;;10493783;28;20454;-64
2023/09/09 20:56:14;;;;;;;16.30;14.60;;;25.80;92.10;;;;;;10490250;28;20518;-65
2023/09/09 21:01:15;;;;;;;16.30;14.70;;;25.80;92.10;;;;;;10485334;28;20441;-65
2023/09/09 21:06:17;;;;;;;17.03;15.33;;;25.80;92.10;;;;;;10493994;28;20470;-65
2023/09/09 21:11:17;;;;;;;16.90;15.10;;;25.70;92.10;;;;;;10492773;28;20399;-65
2023/09/09 21:16:19;;;;;;;17.27;15.47;;;25.70;92.10;;;;;;10487848;28;20395;-65
2023/09/09 21:21:19;;;;;;;16.45;14.75;;;25.60;92.00;;;;;;10483553;28;20499;-66
2023/09/09 21:26:20;;;;;;;17.47;15.60;;;25.60;92.00;;;;;;10484199;28;20395;-64
2023/09/09 21:31:21;;;;;;;16.77;15.07;;;25.60;92.10;;;;;;10481754;28;20811;-65
2023/09/09 21:36:21;;;;;;;17.10;15.30;;;25.50;92.00;;;;;;10485926;28;20502;-64
2023/09/09 21:41:22;;;;;;;17.85;16.02;;;25.50;92.00;;;;;;10483546;28;20464;-65
2023/09/09 21:46:23;;;;;;;18.20;15.90;;;25.50;92.00;;;;;;10486578;28;20399;-65
2023/09/09 21:51:23;;;;;;;17.87;16.10;;;25.40;92.00;;;;;;10491121;28;21111;-65
2023/09/09 21:56:24;;;;;;;16.95;15.18;;;25.40;92.00;;;;;;10484996;28;20592;-65
2023/09/09 22:01:25;;;;;;;16.90;15.13;;;25.40;92.00;;;;;;10488253;28;20498;-65
2023/09/09 22:06:26;;;;;;;16.42;14.82;;;25.30;92.00;;;;;;10484754;28;20452;-65
2023/09/09 22:11:27;;;;;;;16.20;14.60;;;25.30;92.00;;;;;;10493846;28;20451;-64
2023/09/09 22:16:27;;;;;;;16.70;15.10;;;25.30;91.90;;;;;;10489092;28;20388;-64
2023/09/09 22:21:28;;;;;;;16.73;15.03;;;25.20;91.90;;;;;;10481117;28;20473;-64
2023/09/09 22:26:29;;;;;;;16.73;15.03;;;25.20;91.90;;;;;;10489901;28;20400;-65
2023/09/09 22:31:30;;;;;;;16.95;15.20;;;25.20;91.90;;;;;;10490131;28;20387;-64
2023/09/09 22:36:31;;;;;;;17.05;15.30;;;25.20;91.90;;;;;;10497399;28;20407;-64
2023/09/09 22:41:32;;;;;;;17.57;15.77;;;25.10;91.90;;;;;;10494241;28;20410;-65
2023/09/09 22:46:32;;;;;;;17.83;16.00;;;25.10;91.90;;;;;;10487634;28;20404;-64
2023/09/09 22:51:33;;;;;;;17.40;15.63;;;25.00;91.90;;;;;;10488622;28;20488;-63
2023/09/09 22:56:34;;;;;;;17.35;15.55;;;25.00;91.90;;;;;;10491624;28;20411;-64
2023/09/09 23:01:35;;;;;;;16.75;14.95;;;25.00;91.90;;;;;;10494328;28;20490;-64
2023/09/09 23:06:35;;;;;;;17.42;15.52;;;25.00;91.90;;;;;;10496160;28;20400;-65
2023/09/09 23:11:36;;;;;;;17.13;15.33;;;24.90;91.90;;;;;;10491832;28;20438;-63
2023/09/09 23:16:37;;;;;;;17.00;15.20;;;24.90;91.90;;;;;;10493788;28;20430;-65
2023/09/09 23:21:38;;;;;;;16.40;14.70;;;24.90;91.90;;;;;;10493020;28;20395;-65
2023/09/09 23:26:38;;;;;;;17.50;15.70;;;24.90;91.90;;;;;;10490350;28;20429;-64
2023/09/09 23:31:39;;;;;;;16.70;15.00;;;24.90;91.90;;;;;;10499680;28;20816;-64
2023/09/09 23:36:40;;;;;;;17.00;15.30;;;24.80;91.80;;;;;;10493554;28;20476;-64
2023/09/09 23:41:40;;;;;;;16.40;14.65;;;24.80;91.90;;;;;;10493495;28;20997;-65
2023/09/09 23:46:41;;;;;;;17.17;15.37;;;24.80;91.90;;;;;;10486264;28;20406;-64
2023/09/09 23:51:42;;;;;;;16.43;14.73;;;24.80;91.90;;;;;;10498747;28;20410;-65
2023/09/09 23:56:42;;;;;;;16.50;14.80;;;24.70;91.90;;;;;;10500915;28;20473;-65
